Aviation Digital Data Service (ADDS)

Output produced by METARs form (2151 UTC 16 August 2017)
found at http://www.aviationweather.gov/adds/metars/
 
KEWR 162138Z 1622/1724 29012G17KT P6SM SCT070 BKN250 
     FM170000 34007KT P6SM SCT040 
     FM170600 01005KT P6SM SCT040 
     FM171300 04006KT P6SM SCT050 
     FM171700 10004KT P6SM FEW200 
     FM172000 15007KT P6SM FEW150